Time;durP1;ratioP1;P1;durP2;ratioP2;P2;SDS_P1;SDS_P2;PMS_P1;PMS_P2;Temp;Humidity;BMP_temperature;BMP_pressure;BME280_temperature;BME280_humidity;BME280_pressure;Samples;Min_cycle;Max_cycle;Signal;HPM_P1;HPM_P2
2023/06/13 00:01:35;;;;;;;7.07;6.37;;;24.50;44.30;;;;;;4714877;30;20450;-68
2023/06/13 00:05:37;;;;;;;8.13;6.70;;;24.50;44.30;;;;;;4720216;30;20449;-68
2023/06/13 00:25:06;;;;;;;7.70;6.93;;;24.10;44.80;;;;;;4790488;29;20583;-68
2023/06/13 00:49:54;;;;;;;12.10;6.93;;;23.80;44.60;;;;;;4722006;30;20477;-67
2023/06/13 00:52:29;;;;;;;6.80;6.10;;;23.80;44.70;;;;;;4722325;30;20457;-67
2023/06/13 00:55:26;;;;;;;7.73;6.60;;;23.80;44.80;;;;;;4722202;30;20503;-67
2023/06/13 00:58:06;;;;;;;6.43;5.83;;;23.70;44.60;;;;;;4706332;30;20454;-67
2023/06/13 01:01:11;;;;;;;6.67;6.03;;;23.70;44.70;;;;;;4717120;30;20453;-67
2023/06/13 01:04:14;;;;;;;6.87;5.83;;;23.70;44.70;;;;;;4654103;30;20838;-67
2023/06/13 01:07:33;;;;;;;5.93;5.43;;;23.70;45.20;;;;;;4685577;30;20935;-66
2023/06/13 01:10:09;;;;;;;6.50;5.90;;;23.70;44.70;;;;;;4738071;30;20551;-67
2023/06/13 01:13:29;;;;;;;7.50;6.57;;;23.60;44.80;;;;;;4739845;30;20701;-67
2023/06/13 01:17:28;;;;;;;6.00;5.50;;;23.50;44.90;;;;;;4737471;30;20484;-67
2023/06/13 01:23:26;;;;;;;7.63;6.00;;;23.50;44.80;;;;;;4735801;30;20514;-67
2023/06/13 01:29:29;;;;;;;6.77;5.97;;;23.40;44.90;;;;;;4776229;29;20855;-67
2023/06/13 01:35:53;;;;;;;5.63;5.03;;;23.30;45.30;;;;;;4803881;29;20464;-67
2023/06/13 01:39:29;;;;;;;8.50;6.40;;;23.30;45.30;;;;;;4808220;29;20466;-68
2023/06/13 01:42:03;;;;;;;6.43;5.83;;;23.30;45.20;;;;;;4798038;29;20444;-68
2023/06/13 01:51:30;;;;;;;6.30;5.70;;;23.10;45.40;;;;;;4790831;29;20445;-67
2023/06/13 01:54:23;;;;;;;6.60;5.90;;;23.10;45.50;;;;;;4789941;29;20446;-67
2023/06/13 01:57:21;;;;;;;7.27;6.57;;;23.10;45.50;;;;;;4830692;29;20552;-67
2023/06/13 02:05:06;;;;;;;9.10;5.83;;;22.90;45.80;;;;;;4733728;30;20473;-68
2023/06/13 02:07:28;;;;;;;6.17;5.60;;;22.90;45.90;;;;;;4692587;30;20996;-67
2023/06/13 02:10:51;;;;;;;;;;;;;;;;;;;;;
2023/06/13 02:17:21;;;;;;;6.50;5.90;;;22.80;46.10;;;;;;4684252;30;20856;-67
2023/06/13 02:20:36;;;;;;;8.07;5.97;;;22.80;46.30;;;;;;4679863;30;20473;-67
2023/06/13 02:30:57;;;;;;;;;;;;;;;;;;;;;
2023/06/13 02:34:33;;;;;;;6.93;6.20;;;22.60;46.60;;;;;;4626681;30;20928;-67
2023/06/13 03:50:11;;;;;;;6.60;5.90;;;21.70;49.20;;;;;;3216942;23;20503;-67
2023/06/13 03:53:22;;;;;;;8.00;6.13;;;21.60;49.40;;;;;;4777514;29;20494;-67
2023/06/13 04:03:23;;;;;;;;;;;;;;;;;;;;;
2023/06/13 04:06:51;;;;;;;;;;;;;;;;;;;;;
2023/06/13 04:13:31;;;;;;;6.40;5.80;;;21.30;50.40;;;;;;4684080;30;20447;-68
2023/06/13 04:22:30;;;;;;;7.77;6.00;;;21.20;50.60;;;;;;4671304;30;20455;-67
2023/06/13 05:09:18;;;;;;;8.27;5.70;;;21.00;52.10;;;;;;4762933;29;20481;-68
2023/06/13 05:12:24;;;;;;;;;;;;;;;;;;;;;
2023/06/13 05:25:38;;;;;;;7.10;5.43;;;21.10;51.70;;;;;;4642760;30;20527;-68
2023/06/13 05:28:30;;;;;;;7.97;5.83;;;21.00;51.80;;;;;;4605300;30;20545;-68
2023/06/13 05:35:08;;;;;;;10.47;6.23;;;21.00;52.30;;;;;;4651791;30;20593;-68
2023/06/13 05:41:02;;;;;;;8.07;6.10;;;21.20;52.00;;;;;;4666420;30;20912;-68
2023/06/13 05:43:42;;;;;;;11.13;5.53;;;21.20;51.80;;;;;;4633518;30;20499;-68
2023/06/13 05:46:20;;;;;;;6.97;6.27;;;21.30;51.70;;;;;;4683189;30;20486;-68
2023/06/13 05:48:52;;;;;;;9.97;8.87;;;21.30;51.80;;;;;;4725275;30;20464;-68
2023/06/13 05:51:55;;;;;;;15.70;8.77;;;21.30;51.80;;;;;;4733667;30;20447;-68
2023/06/13 05:54:24;;;;;;;12.43;10.40;;;21.40;51.70;;;;;;4756159;30;20530;-68
2023/06/13 06:16:20;;;;;;;7.23;6.37;;;21.60;51.10;;;;;;3116706;27;20504;-67
2023/06/13 06:19:49;;;;;;;;;;;;;;;;;;;;;
2023/06/13 06:22:43;;;;;;;9.90;8.17;;;21.70;51.00;;;;;;4812168;29;20452;-67
2023/06/13 06:25:58;;;;;;;13.73;5.77;;;21.70;50.70;;;;;;4824996;29;20483;-67
2023/06/13 06:41:55;;;;;;;5.40;4.90;;;22.00;49.20;;;;;;4700611;30;20952;-68
2023/06/13 06:45:06;;;;;;;10.83;9.73;;;22.00;48.70;;;;;;4622946;30;20500;-67
2023/06/13 06:57:57;;;;;;;;;;;;;;;;;;;;;
2023/06/13 07:00:38;;;;;;;9.07;7.67;;;22.20;45.50;;;;;;4741432;29;20695;-68
2023/06/13 07:03:20;;;;;;;7.90;6.87;;;22.20;45.30;;;;;;4738994;30;20440;-68
2023/06/13 08:19:52;;;;;;;8.63;5.23;;;23.20;41.70;;;;;;4166460;27;20511;-68
2023/06/13 08:22:56;;;;;;;5.67;5.17;;;23.20;42.00;;;;;;4786400;29;20518;-68
2023/06/13 08:28:31;;;;;;;6.20;5.00;;;23.30;42.60;;;;;;4749891;30;20443;-68
2023/06/13 08:31:23;;;;;;;5.93;5.33;;;23.30;42.50;;;;;;4755774;30;20562;-68
2023/06/13 08:34:10;;;;;;;5.47;4.83;;;23.40;42.40;;;;;;4729895;30;20456;-69
2023/06/13 08:36:45;;;;;;;8.83;5.30;;;23.40;42.20;;;;;;4757029;30;20455;-69
2023/06/13 09:43:10;;;;;;;10.97;5.40;;;24.70;40.50;;;;;;4844378;29;20447;-67
2023/06/13 09:48:56;;;;;;;6.50;5.27;;;24.80;41.10;;;;;;4838413;29;20633;-68
2023/06/13 09:51:52;;;;;;;6.60;5.27;;;24.90;40.60;;;;;;4843236;29;21340;-68
2023/06/13 09:58:04;;;;;;;5.93;4.80;;;24.90;40.00;;;;;;4843051;29;20497;-67
2023/06/13 10:04:07;;;;;;;;;;;;;;;;;;;;;
2023/06/13 10:07:16;;;;;;;6.53;5.50;;;25.10;40.60;;;;;;4848954;29;20471;-68
2023/06/13 10:10:06;;;;;;;;;;;;;;;;;;;;;
2023/06/13 10:12:54;;;;;;;6.20;5.60;;;25.20;41.00;;;;;;4836025;29;20897;-68
2023/06/13 10:15:57;;;;;;;6.63;5.40;;;25.30;41.30;;;;;;4849012;29;20498;-68
2023/06/13 10:18:39;;;;;;;6.20;5.60;;;25.30;41.10;;;;;;4846732;29;20458;-68
2023/06/13 10:21:31;;;;;;;7.70;5.87;;;25.30;40.90;;;;;;4843525;29;20786;-68
2023/06/13 10:24:39;;;;;;;5.87;5.37;;;25.30;40.80;;;;;;4757807;29;20423;-68
2023/06/13 10:27:32;;;;;;;;;;;;;;;;;;;;;
2023/06/13 10:30:46;;;;;;;5.57;5.07;;;25.50;40.60;;;;;;4754471;29;20560;-68
2023/06/13 10:37:22;;;;;;;5.57;5.07;;;25.60;40.40;;;;;;4748417;29;20474;-68
2023/06/13 10:40:50;;;;;;;6.97;6.27;;;25.70;39.80;;;;;;4770557;29;20478;-67
2023/06/13 10:43:18;;;;;;;7.33;5.53;;;25.80;39.60;;;;;;4755833;29;20524;-68
2023/06/13 10:45:58;;;;;;;6.27;5.77;;;25.90;39.20;;;;;;4764639;29;20501;-67
2023/06/13 10:59:36;;;;;;;10.23;4.80;;;26.20;38.70;;;;;;4805914;27;20509;-67
2023/06/13 11:28:58;;;;;;;;;;;;;;;;;;;;;
2023/06/13 11:36:11;;;;;;;;;;;;;;;;;;;;;
2023/06/13 11:39:51;;;;;;;6.10;5.43;;;27.60;36.50;;;;;;4696612;30;20485;-67
2023/06/13 11:43:31;;;;;;;;;;;;;;;;;;;;;
2023/06/13 11:46:20;;;;;;;5.00;4.60;;;27.80;36.30;;;;;;4630268;30;20483;-67
2023/06/13 11:49:59;;;;;;;8.93;5.07;;;28.00;36.30;;;;;;4677515;24;20474;-67
2023/06/13 11:53:16;;;;;;;9.63;5.17;;;28.10;35.00;;;;;;4702356;30;20470;-67
2023/06/13 12:03:22;;;;;;;5.67;5.17;;;28.90;36.10;;;;;;4599828;31;20473;-67
2023/06/13 12:06:19;;;;;;;;;;;;;;;;;;;;;
2023/06/13 12:09:02;;;;;;;;;;;;;;;;;;;;;
2023/06/13 12:12:03;;;;;;;5.70;5.10;;;32.70;32.50;;;;;;4651788;30;20457;-67
2023/06/13 12:15:56;;;;;;;10.33;5.03;;;33.70;31.20;;;;;;4635975;30;20528;-67
2023/06/13 13:51:50;;;;;;;7.53;6.83;;;33.90;28.30;;;;;;4642930;30;20831;-67
2023/06/13 15:00:40;;;;;;;;;;;;;;;;;;;;;
2023/06/13 15:06:55;;;;;;;7.03;5.67;;;35.50;26.80;;;;;;4715633;30;20477;-67
2023/06/13 15:55:12;;;;;;;6.83;5.40;;;40.00;24.30;;;;;;6274051;22;20148;-66
2023/06/13 16:36:43;;;;;;;5.70;5.20;;;35.00;26.30;;;;;;6087717;23;20386;-68
2023/06/13 16:39:32;;;;;;;5.40;4.90;;;34.80;26.50;;;;;;5945245;24;20421;-68
2023/06/13 16:42:42;;;;;;;5.70;5.20;;;34.80;26.60;;;;;;5992735;23;20394;-67
2023/06/13 16:45:15;;;;;;;7.20;4.97;;;34.70;26.40;;;;;;5937080;24;20820;-67
2023/06/13 18:00:17;;;;;;;6.10;5.30;;;31.90;27.70;;;;;;5778952;24;20892;-66
2023/06/13 18:03:17;;;;;;;6.83;6.10;;;31.60;27.80;;;;;;5676255;25;20936;-65
2023/06/13 18:06:47;;;;;;;6.10;5.50;;;31.40;28.00;;;;;;5729212;25;20368;-65
2023/06/13 18:09:21;;;;;;;5.80;5.10;;;31.20;28.30;;;;;;5702796;25;20432;-64
2023/06/13 18:15:37;;;;;;;;;;;;;;;;;;;;;
2023/06/13 18:18:55;;;;;;;9.07;8.17;;;30.70;28.70;;;;;;5912371;24;20506;-64
2023/06/13 18:25:12;;;;;;;9.37;5.80;;;30.30;28.80;;;;;;5995045;23;20480;-66
2023/06/13 18:28:20;;;;;;;;;;;;;;;;;;;;;
2023/06/13 18:44:10;;;;;;;9.57;5.90;;;29.60;29.30;;;;;;5951503;23;21262;-65
2023/06/13 18:47:20;;;;;;;9.20;5.30;;;29.50;29.40;;;;;;6044473;23;20371;-65
2023/06/13 19:04:59;;;;;;;;;;;;;;;;;;;;;
2023/06/13 19:08:06;;;;;;;8.37;6.50;;;29.00;30.50;;;;;;5978191;23;20451;-65
2023/06/13 19:32:58;;;;;;;;;;;;;;;;;;;;;
2023/06/13 19:52:52;;;;;;;6.67;5.80;;;27.80;32.70;;;;;;6131296;23;20395;-66
2023/06/13 19:56:06;;;;;;;7.93;5.87;;;27.70;32.70;;;;;;6100313;23;20648;-64
2023/06/13 19:58:32;;;;;;;7.00;5.90;;;27.70;33.00;;;;;;6129616;23;20420;-64
2023/06/13 20:01:03;;;;;;;5.97;5.37;;;27.60;33.00;;;;;;6136023;23;20410;-65
2023/06/13 20:03:29;;;;;;;7.13;6.27;;;27.50;33.20;;;;;;6230022;23;20734;-65
2023/06/13 20:05:54;;;;;;;6.63;5.93;;;27.50;33.20;;;;;;6232405;23;20401;-64
2023/06/13 20:08:20;;;;;;;7.27;5.73;;;27.50;33.40;;;;;;6228758;23;20182;-64
2023/06/13 20:10:46;;;;;;;10.73;5.37;;;27.40;33.50;;;;;;6205738;23;20151;-64
2023/06/13 20:13:12;;;;;;;5.60;5.10;;;27.40;33.70;;;;;;6231865;23;20158;-65
2023/06/13 20:15:40;;;;;;;7.20;5.93;;;27.30;33.70;;;;;;6235247;23;21087;-65
2023/06/13 20:18:06;;;;;;;8.17;6.37;;;27.20;33.90;;;;;;6235039;23;20285;-65
2023/06/13 20:20:31;;;;;;;9.97;5.90;;;27.20;33.90;;;;;;6232943;23;20428;-65
2023/06/13 20:22:57;;;;;;;7.23;5.97;;;27.20;34.00;;;;;;6235000;23;20234;-65
2023/06/13 20:25:22;;;;;;;8.80;6.40;;;27.10;34.00;;;;;;6235293;23;20155;-64
2023/06/13 20:27:48;;;;;;;6.57;5.83;;;27.10;34.20;;;;;;6233982;23;20665;-65
2023/06/13 20:30:14;;;;;;;6.93;5.80;;;27.00;34.30;;;;;;6234348;23;20151;-64
2023/06/13 20:32:40;;;;;;;6.50;5.80;;;27.00;34.30;;;;;;6235737;23;20158;-65
2023/06/13 20:35:06;;;;;;;7.30;6.60;;;26.90;34.30;;;;;;6233173;23;20381;-64
2023/06/13 20:37:32;;;;;;;9.83;6.60;;;26.90;34.70;;;;;;6234488;23;20147;-64
2023/06/13 20:40:00;;;;;;;7.17;6.30;;;26.80;34.80;;;;;;6235265;23;20371;-65
2023/06/13 20:42:35;;;;;;;7.00;6.30;;;26.80;34.90;;;;;;6207759;23;20676;-65
2023/06/13 20:45:07;;;;;;;13.20;8.47;;;26.70;35.30;;;;;;6235560;23;20731;-65
2023/06/13 20:47:34;;;;;;;7.67;6.87;;;26.70;34.70;;;;;;6233477;23;21138;-64
2023/06/13 20:50:00;;;;;;;9.47;6.37;;;26.60;34.90;;;;;;6209814;23;20390;-64
2023/06/13 20:52:26;;;;;;;11.37;8.13;;;26.50;35.20;;;;;;6234101;23;20370;-66
2023/06/13 20:54:57;;;;;;;9.83;8.87;;;26.50;35.60;;;;;;6235901;23;20374;-66
2023/06/13 20:57:23;;;;;;;9.10;7.17;;;26.50;35.70;;;;;;6231277;23;20167;-67
2023/06/13 20:59:51;;;;;;;9.60;6.50;;;26.50;35.80;;;;;;6235473;23;20381;-65
2023/06/13 21:02:16;;;;;;;7.53;6.50;;;26.40;36.10;;;;;;6261667;22;20162;-63
2023/06/13 21:04:43;;;;;;;8.40;7.00;;;26.30;36.10;;;;;;6265945;22;20365;-65
2023/06/13 21:07:09;;;;;;;6.60;6.00;;;26.20;36.30;;;;;;6238438;22;20155;-65
2023/06/13 21:09:34;;;;;;;7.43;5.70;;;26.10;36.40;;;;;;6263429;22;20455;-65
2023/06/13 21:12:01;;;;;;;6.50;5.90;;;26.00;36.60;;;;;;6266738;22;20154;-65
2023/06/13 21:14:26;;;;;;;7.80;6.20;;;26.00;36.90;;;;;;6262561;22;20142;-65
2023/06/13 21:16:52;;;;;;;7.90;6.20;;;25.90;36.90;;;;;;6266526;22;20404;-65
2023/06/13 21:19:18;;;;;;;9.23;5.20;;;25.90;36.90;;;;;;6263522;22;20683;-63
2023/06/13 21:21:44;;;;;;;5.80;5.30;;;25.80;36.90;;;;;;6266520;22;20161;-66
2023/06/13 21:24:09;;;;;;;8.20;5.57;;;25.80;37.10;;;;;;6237875;22;20208;-63
2023/06/13 21:26:35;;;;;;;5.83;5.30;;;25.80;37.20;;;;;;6263645;22;20382;-65
2023/06/13 21:29:02;;;;;;;15.83;6.83;;;25.70;37.20;;;;;;6260982;22;20178;-65
2023/06/13 21:31:27;;;;;;;6.30;5.30;;;25.60;37.30;;;;;;6260348;22;20620;-65
2023/06/13 21:33:53;;;;;;;6.10;5.50;;;25.60;37.40;;;;;;6258587;22;20381;-64
2023/06/13 21:36:19;;;;;;;5.80;5.30;;;25.50;37.70;;;;;;6261587;22;20143;-64
2023/06/13 21:38:47;;;;;;;9.83;6.20;;;25.50;37.80;;;;;;6261588;22;20298;-65
2023/06/13 21:41:14;;;;;;;6.30;5.70;;;25.40;37.80;;;;;;6263152;22;20365;-65
2023/06/13 21:43:39;;;;;;;9.50;5.70;;;25.40;37.90;;;;;;6262805;22;20370;-64
2023/06/13 21:46:05;;;;;;;6.33;5.73;;;25.30;37.90;;;;;;6262611;22;20380;-65
2023/06/13 21:48:31;;;;;;;6.63;6.03;;;25.30;38.10;;;;;;6257575;22;20273;-65
2023/06/13 21:50:57;;;;;;;7.83;6.30;;;25.30;38.30;;;;;;6261071;22;20155;-65
2023/06/13 21:53:23;;;;;;;6.13;5.50;;;25.20;38.30;;;;;;6257733;22;20151;-64
2023/06/13 21:55:48;;;;;;;7.40;5.97;;;25.20;38.70;;;;;;6262991;22;20376;-64
2023/06/13 21:58:15;;;;;;;6.23;5.63;;;25.20;38.50;;;;;;6262688;22;20220;-64
2023/06/13 22:00:44;;;;;;;8.60;5.70;;;25.20;38.50;;;;;;6235226;22;20269;-65
2023/06/13 22:03:11;;;;;;;6.83;6.10;;;25.10;39.10;;;;;;6264251;22;20362;-64
2023/06/13 22:05:37;;;;;;;8.17;5.87;;;25.10;38.40;;;;;;6261174;22;20442;-65
2023/06/13 22:08:03;;;;;;;7.13;5.67;;;25.10;39.00;;;;;;6264097;22;20425;-65
2023/06/13 22:10:30;;;;;;;6.50;5.80;;;25.10;38.80;;;;;;6265301;22;20146;-65
2023/06/13 22:12:56;;;;;;;7.00;5.87;;;25.00;38.90;;;;;;6265203;22;20430;-64
2023/06/13 22:15:22;;;;;;;6.53;5.87;;;25.00;38.90;;;;;;6264267;22;20377;-66
2023/06/13 22:17:51;;;;;;;7.30;6.47;;;25.00;39.10;;;;;;6266413;22;20393;-67
2023/06/13 22:20:27;;;;;;;7.70;5.83;;;24.90;39.30;;;;;;6266375;22;20150;-65
2023/06/13 22:22:57;;;;;;;11.60;6.97;;;24.90;39.40;;;;;;6255899;22;20475;-65
2023/06/13 22:25:24;;;;;;;7.90;5.97;;;24.90;39.50;;;;;;6259459;22;20380;-65
2023/06/13 22:27:52;;;;;;;6.93;6.23;;;24.80;39.60;;;;;;6261456;22;20420;-65
2023/06/13 22:30:19;;;;;;;5.73;5.20;;;24.80;39.80;;;;;;6262838;22;20385;-65
2023/06/13 22:32:45;;;;;;;9.73;6.60;;;24.70;40.00;;;;;;6262835;22;20374;-65
2023/06/13 22:35:11;;;;;;;10.50;6.40;;;24.70;40.00;;;;;;6261198;22;20898;-65
2023/06/13 22:37:37;;;;;;;10.20;5.67;;;24.70;40.10;;;;;;6232898;22;20155;-65
2023/06/13 22:40:06;;;;;;;8.07;6.83;;;24.70;40.40;;;;;;6263895;22;20369;-65
2023/06/13 22:42:31;;;;;;;7.57;6.73;;;24.70;40.40;;;;;;6262086;22;20837;-65
2023/06/13 22:44:57;;;;;;;7.30;6.57;;;24.60;40.30;;;;;;6262618;22;20377;-65
2023/06/13 22:47:22;;;;;;;6.67;5.97;;;24.60;40.80;;;;;;6261546;22;20151;-65
2023/06/13 22:49:50;;;;;;;6.80;6.10;;;24.50;40.90;;;;;;6264075;22;20491;-65
2023/06/13 22:52:16;;;;;;;5.93;5.33;;;24.50;41.30;;;;;;6262629;22;20778;-65
2023/06/13 22:54:42;;;;;;;6.60;5.90;;;24.40;41.20;;;;;;6261951;22;20424;-65
2023/06/13 22:57:08;;;;;;;7.37;6.67;;;24.40;41.30;;;;;;6260416;22;20428;-64
2023/06/13 22:59:33;;;;;;;6.13;5.60;;;24.40;41.20;;;;;;6261161;22;20443;-64
2023/06/13 23:02:00;;;;;;;6.60;6.00;;;24.40;41.10;;;;;;6262901;22;20251;-66
2023/06/13 23:04:30;;;;;;;8.47;6.43;;;24.30;41.20;;;;;;6262719;22;20799;-66
2023/06/13 23:07:00;;;;;;;7.07;6.40;;;24.30;41.10;;;;;;6262294;22;20447;-66
2023/06/13 23:09:26;;;;;;;6.57;5.93;;;24.30;41.30;;;;;;6260898;22;20500;-66
2023/06/13 23:11:51;;;;;;;6.40;5.80;;;24.30;41.30;;;;;;6262244;22;20532;-66
2023/06/13 23:14:17;;;;;;;8.33;6.13;;;24.20;41.50;;;;;;6260947;22;20150;-66
2023/06/13 23:16:44;;;;;;;6.90;6.20;;;24.20;41.60;;;;;;6263034;22;20158;-66
2023/06/13 23:19:09;;;;;;;8.30;6.40;;;24.20;41.60;;;;;;6263682;22;20177;-66
2023/06/13 23:21:35;;;;;;;6.93;6.23;;;24.20;41.60;;;;;;6261783;22;20377;-66
2023/06/13 23:24:00;;;;;;;6.90;6.30;;;24.10;41.80;;;;;;6262796;22;20170;-66
2023/06/13 23:26:26;;;;;;;7.53;5.87;;;24.00;41.90;;;;;;6263179;22;20177;-66
2023/06/13 23:28:55;;;;;;;7.90;5.83;;;24.00;41.90;;;;;;6262499;22;20185;-66
2023/06/13 23:31:20;;;;;;;7.70;5.70;;;23.90;42.40;;;;;;6261649;22;20162;-67
2023/06/13 23:33:48;;;;;;;6.60;6.00;;;23.90;42.20;;;;;;6260332;22;20373;-66
2023/06/13 23:36:16;;;;;;;7.17;5.93;;;23.80;42.30;;;;;;6262528;22;20211;-66
2023/06/13 23:38:42;;;;;;;8.10;6.00;;;23.80;42.70;;;;;;6261429;22;20404;-66
2023/06/13 23:41:11;;;;;;;6.93;6.20;;;23.80;42.20;;;;;;6263028;22;20373;-66
2023/06/13 23:43:36;;;;;;;9.20;5.87;;;23.70;42.10;;;;;;6260811;22;20373;-66
2023/06/13 23:46:04;;;;;;;7.23;5.47;;;23.70;42.10;;;;;;6263328;22;20952;-66
2023/06/13 23:48:30;;;;;;;7.00;6.07;;;23.70;42.00;;;;;;6261321;22;20186;-66
2023/06/13 23:50:56;;;;;;;6.40;5.80;;;23.70;42.10;;;;;;6265129;22;20373;-66
2023/06/13 23:53:22;;;;;;;6.47;5.80;;;23.70;42.10;;;;;;6263875;22;20747;-66
2023/06/13 23:55:48;;;;;;;5.60;5.10;;;23.60;42.00;;;;;;6264153;22;20409;-66
2023/06/13 23:58:13;;;;;;;5.60;5.00;;;23.50;42.10;;;;;;6264751;22;20197;-66
